createdAt,value
2017-08-06T00:00:45.926Z,19.10
2017-08-06T00:03:13.510Z,19.00
2017-08-06T00:05:41.417Z,18.80
2017-08-06T00:08:09.008Z,18.80
2017-08-06T00:10:36.725Z,18.80
2017-08-06T00:13:04.347Z,18.80
2017-08-06T00:15:32.714Z,18.60
2017-08-06T00:18:00.331Z,18.60
2017-08-06T00:20:27.945Z,18.60
2017-08-06T00:22:55.666Z,18.60
2017-08-06T00:25:23.232Z,18.40
2017-08-06T00:27:50.815Z,18.40
2017-08-06T00:30:19.162Z,18.20
2017-08-06T00:32:47.039Z,18.20
2017-08-06T00:35:14.638Z,18.20
2017-08-06T00:37:42.220Z,18.20
2017-08-06T00:40:09.802Z,18.10
2017-08-06T00:42:37.378Z,18.20
2017-08-06T00:45:04.960Z,18.10
2017-08-06T00:47:32.547Z,18.10
2017-08-06T00:50:00.141Z,18.00
2017-08-06T00:52:27.701Z,18.00
2017-08-06T00:54:55.660Z,18.10
2017-08-06T00:57:24.046Z,18.10
2017-08-06T00:59:51.625Z,18.10
2017-08-06T01:02:19.211Z,18.10
2017-08-06T01:04:46.774Z,18.10
2017-08-06T01:07:14.368Z,18.20
2017-08-06T01:09:41.957Z,18.20
2017-08-06T01:12:09.547Z,18.30
2017-08-06T01:14:37.123Z,18.20
2017-08-06T01:17:05.021Z,18.20
2017-08-06T01:19:32.595Z,18.00
2017-08-06T01:22:00.173Z,17.90
2017-08-06T01:24:28.541Z,17.80
2017-08-06T01:26:56.115Z,17.80
2017-08-06T01:29:23.685Z,17.80
2017-08-06T01:31:51.266Z,17.80
2017-08-06T01:34:18.852Z,17.80
2017-08-06T01:36:46.421Z,17.80
2017-08-06T01:39:14.001Z,17.80
2017-08-06T01:41:41.579Z,17.70
2017-08-06T01:44:09.475Z,17.70
2017-08-06T01:46:37.060Z,17.60
2017-08-06T01:49:04.638Z,17.70
2017-08-06T01:51:32.996Z,17.60
2017-08-06T01:54:00.598Z,17.60
2017-08-06T01:56:28.170Z,17.60
2017-08-06T01:58:55.733Z,17.60
2017-08-06T02:01:23.325Z,17.50
2017-08-06T02:03:50.917Z,17.50
2017-08-06T02:06:19.289Z,17.60
2017-08-06T02:08:46.851Z,17.50
2017-08-06T02:11:14.446Z,17.60
2017-08-06T02:13:42.006Z,17.70
2017-08-06T02:16:09.869Z,17.70
2017-08-06T02:18:37.436Z,17.70
2017-08-06T02:21:05.014Z,17.60
2017-08-06T02:23:32.617Z,17.50
2017-08-06T02:26:00.964Z,17.50
2017-08-06T02:28:28.570Z,17.50
2017-08-06T02:30:56.148Z,17.50
2017-08-06T02:33:23.747Z,17.50
2017-08-06T02:35:51.912Z,17.60
2017-08-06T02:38:19.500Z,17.60
2017-08-06T02:40:47.109Z,17.60
2017-08-06T02:43:15.013Z,17.60
2017-08-06T02:45:42.587Z,17.70
2017-08-06T02:48:10.174Z,17.70
2017-08-06T02:50:37.793Z,17.60
2017-08-06T02:53:05.372Z,17.60
2017-08-06T02:55:32.945Z,17.60
2017-08-06T02:58:00.524Z,17.60
2017-08-06T03:00:28.446Z,17.60
2017-08-06T03:02:57.396Z,17.50
2017-08-06T03:05:24.958Z,17.50
2017-08-06T03:07:52.544Z,17.50
2017-08-06T03:10:20.133Z,17.50
2017-08-06T03:12:48.469Z,17.40
2017-08-06T03:15:16.047Z,17.40
2017-08-06T03:17:43.634Z,17.40
2017-08-06T03:20:11.227Z,17.40
2017-08-06T03:22:38.790Z,17.40
2017-08-06T03:25:06.343Z,17.40
2017-08-06T03:27:33.916Z,17.40
2017-08-06T03:30:01.479Z,17.40
2017-08-06T03:32:29.371Z,17.40
2017-08-06T03:34:56.962Z,17.40
2017-08-06T03:37:24.546Z,17.40
2017-08-06T03:39:52.132Z,17.50
2017-08-06T03:42:19.698Z,17.50
2017-08-06T03:44:47.277Z,17.40
2017-08-06T03:47:15.606Z,17.50
2017-08-06T03:49:43.183Z,17.50
2017-08-06T03:52:10.751Z,17.50
2017-08-06T03:54:38.325Z,17.40
2017-08-06T03:57:06.704Z,17.30
2017-08-06T03:59:35.377Z,17.40
2017-08-06T04:02:02.973Z,17.40
2017-08-06T04:04:30.557Z,17.50
2017-08-06T04:06:58.114Z,17.50
2017-08-06T04:09:25.713Z,17.40
2017-08-06T04:11:53.311Z,17.40
2017-08-06T04:14:20.883Z,17.40
2017-08-06T04:16:48.454Z,17.40
2017-08-06T04:19:16.036Z,17.40
2017-08-06T04:21:43.619Z,17.30
2017-08-06T04:24:11.188Z,17.30
2017-08-06T04:26:39.551Z,17.30
2017-08-06T04:29:07.208Z,17.30
2017-08-06T04:31:35.201Z,17.30
2017-08-06T04:34:02.774Z,17.30
2017-08-06T04:36:30.388Z,17.30
2017-08-06T04:38:58.044Z,17.30
2017-08-06T04:41:25.623Z,17.30
2017-08-06T04:43:53.978Z,17.30
2017-08-06T04:46:21.576Z,17.30
2017-08-06T04:48:49.210Z,17.30
2017-08-06T04:51:16.796Z,17.30
2017-08-06T04:53:44.733Z,17.40
2017-08-06T04:56:12.339Z,17.50
2017-08-06T04:58:39.907Z,17.50
2017-08-06T05:01:07.517Z,17.50
2017-08-06T05:03:35.101Z,17.50
2017-08-06T05:06:02.812Z,17.60
2017-08-06T05:08:30.404Z,17.60
2017-08-06T05:10:57.984Z,17.50
2017-08-06T05:13:25.574Z,17.50
2017-08-06T05:15:53.139Z,17.40
2017-08-06T05:18:20.722Z,17.40
2017-08-06T05:20:48.582Z,17.50
2017-08-06T05:23:16.161Z,17.40
2017-08-06T05:25:44.513Z,17.40
2017-08-06T05:28:12.116Z,17.40
2017-08-06T05:30:39.697Z,17.40
2017-08-06T05:33:07.290Z,17.40
2017-08-06T05:35:34.858Z,17.50
2017-08-06T05:38:02.500Z,17.50
2017-08-06T05:40:30.112Z,17.50
2017-08-06T05:42:58.765Z,17.60
2017-08-06T05:45:26.364Z,17.70
2017-08-06T05:47:53.946Z,17.70
2017-08-06T05:50:21.551Z,17.90
2017-08-06T05:52:49.165Z,18.00
2017-08-06T05:55:16.767Z,18.10
2017-08-06T05:57:44.321Z,18.00
2017-08-06T06:00:11.906Z,18.00
2017-08-06T06:02:39.524Z,18.00
2017-08-06T06:05:07.510Z,18.00
2017-08-06T06:07:35.133Z,17.90
2017-08-06T06:10:02.707Z,17.80
2017-08-06T06:12:30.298Z,17.90
2017-08-06T06:14:57.877Z,18.10
2017-08-06T06:17:25.485Z,18.20
2017-08-06T06:19:53.117Z,18.20
2017-08-06T06:22:20.760Z,18.30
2017-08-06T06:24:48.372Z,18.40
2017-08-06T06:27:15.960Z,18.50
2017-08-06T06:29:43.527Z,18.50
2017-08-06T06:32:11.099Z,18.50
2017-08-06T06:34:38.686Z,18.50
2017-08-06T06:37:06.552Z,18.30
2017-08-06T06:39:34.132Z,18.30
2017-08-06T06:42:01.702Z,18.40
2017-08-06T06:44:29.284Z,18.60
2017-08-06T06:46:56.862Z,18.80
2017-08-06T06:49:24.433Z,18.90
2017-08-06T06:51:51.985Z,19.00
2017-08-06T06:54:19.572Z,19.10
2017-08-06T06:56:47.157Z,19.00
2017-08-06T06:59:14.755Z,19.20
2017-08-06T07:01:42.319Z,19.30
2017-08-06T07:04:10.227Z,19.20
2017-08-06T07:06:37.794Z,19.00
2017-08-06T07:09:05.367Z,19.10
2017-08-06T07:11:32.953Z,19.20
2017-08-06T07:14:00.560Z,19.40
2017-08-06T07:16:28.143Z,19.40
2017-08-06T07:18:55.703Z,19.30
2017-08-06T07:21:23.290Z,19.30
2017-08-06T07:23:50.859Z,19.30
2017-08-06T07:26:18.434Z,19.40
2017-08-06T07:28:46.003Z,19.30
2017-08-06T07:31:13.870Z,19.50
2017-08-06T07:33:41.453Z,19.60
2017-08-06T07:36:09.034Z,19.70
2017-08-06T07:38:37.393Z,19.50
2017-08-06T07:41:04.981Z,19.50
2017-08-06T07:43:32.590Z,19.60
2017-08-06T07:46:00.171Z,19.70
2017-08-06T07:48:27.748Z,19.90
2017-08-06T07:50:55.317Z,20.10
2017-08-06T07:53:23.664Z,20.20
2017-08-06T07:55:52.033Z,20.00
2017-08-06T07:58:19.628Z,20.00
2017-08-06T08:00:47.212Z,19.80
2017-08-06T08:03:15.870Z,19.50
2017-08-06T08:05:43.458Z,19.50
2017-08-06T08:08:11.013Z,19.50
2017-08-06T08:10:39.372Z,19.30
2017-08-06T08:13:06.947Z,19.30
2017-08-06T08:15:35.439Z,19.40
2017-08-06T08:18:03.781Z,19.50
2017-08-06T08:20:31.379Z,19.50
2017-08-06T08:22:59.000Z,19.60
2017-08-06T08:25:26.976Z,19.90
2017-08-06T08:27:54.557Z,20.10
2017-08-06T08:30:22.901Z,20.10
2017-08-06T08:32:50.486Z,20.10
2017-08-06T08:35:18.052Z,20.10
2017-08-06T08:37:45.636Z,20.30
2017-08-06T08:40:13.207Z,20.50
2017-08-06T08:42:40.797Z,20.70
2017-08-06T08:45:08.347Z,20.80
2017-08-06T08:47:35.936Z,20.90
2017-08-06T08:50:03.637Z,21.10
2017-08-06T08:52:31.232Z,21.10
2017-08-06T08:54:58.827Z,21.10
2017-08-06T08:57:26.397Z,21.10
2017-08-06T08:59:54.747Z,21.00
2017-08-06T09:02:23.096Z,21.00
2017-08-06T09:04:50.687Z,21.00
2017-08-06T09:07:19.039Z,21.20
2017-08-06T09:09:46.987Z,21.20
2017-08-06T09:12:14.604Z,21.40
2017-08-06T09:14:42.219Z,21.60
2017-08-06T09:17:09.902Z,21.60
2017-08-06T09:19:38.326Z,21.10
2017-08-06T09:22:05.928Z,21.10
2017-08-06T09:24:34.258Z,21.00
2017-08-06T09:27:01.853Z,20.90
2017-08-06T09:29:29.467Z,20.70
2017-08-06T09:31:57.071Z,20.60
2017-08-06T09:34:24.689Z,20.60
2017-08-06T09:36:52.291Z,20.50
2017-08-06T09:39:19.876Z,20.40
2017-08-06T09:41:47.793Z,20.20
2017-08-06T09:44:15.373Z,20.20
2017-08-06T09:46:42.992Z,20.30
2017-08-06T09:49:12.943Z,20.40
2017-08-06T09:51:40.566Z,20.50
2017-08-06T09:54:08.153Z,20.50
2017-08-06T09:56:35.830Z,20.50
2017-08-06T09:59:03.420Z,20.40
2017-08-06T10:01:31.023Z,20.40
2017-08-06T10:03:58.621Z,20.40
2017-08-06T10:06:26.200Z,20.50
2017-08-06T10:08:54.866Z,20.70
2017-08-06T10:11:22.466Z,20.70
2017-08-06T10:13:50.055Z,20.80
2017-08-06T10:16:17.652Z,20.80
2017-08-06T10:18:46.059Z,20.50
2017-08-06T10:21:13.682Z,20.50
2017-08-06T10:23:41.325Z,20.50
2017-08-06T10:26:08.935Z,20.40
2017-08-06T10:28:37.349Z,20.30
2017-08-06T10:31:04.957Z,20.30
2017-08-06T10:33:33.304Z,20.10
2017-08-06T10:36:01.190Z,20.10
2017-08-06T10:38:29.556Z,20.10
2017-08-06T10:40:57.116Z,20.10
2017-08-06T10:43:24.753Z,20.20
2017-08-06T10:45:52.339Z,20.30
2017-08-06T10:48:19.917Z,20.40
2017-08-06T10:50:47.505Z,20.40
2017-08-06T10:53:15.099Z,20.30
2017-08-06T10:55:42.676Z,20.10
2017-08-06T10:58:10.573Z,19.90
2017-08-06T11:00:38.182Z,19.80
2017-08-06T11:03:05.757Z,19.60
2017-08-06T11:05:33.334Z,19.50
2017-08-06T11:08:01.689Z,19.30
2017-08-06T11:10:29.288Z,19.30
2017-08-06T11:12:56.928Z,19.30
2017-08-06T11:15:24.504Z,19.20
2017-08-06T11:17:52.082Z,19.20
2017-08-06T11:20:19.678Z,19.20
2017-08-06T11:22:47.250Z,19.30
2017-08-06T11:25:15.114Z,19.20
2017-08-06T11:27:42.721Z,19.10
2017-08-06T11:30:10.292Z,19.10
2017-08-06T11:32:37.888Z,19.10
2017-08-06T11:35:05.470Z,19.00
2017-08-06T11:37:33.076Z,18.90
2017-08-06T11:40:00.654Z,18.90
2017-08-06T11:42:28.230Z,18.90
2017-08-06T11:44:55.793Z,18.90
2017-08-06T11:47:23.385Z,18.90
2017-08-06T11:49:51.724Z,18.70
2017-08-06T11:52:19.694Z,18.60
2017-08-06T11:54:47.277Z,18.60
2017-08-06T11:57:15.627Z,18.50
2017-08-06T11:59:43.237Z,18.50
2017-08-06T12:02:10.811Z,18.40
2017-08-06T12:04:38.585Z,18.40
2017-08-06T12:07:06.146Z,18.40
2017-08-06T12:09:33.724Z,18.40
2017-08-06T12:12:01.282Z,18.50
2017-08-06T12:14:28.855Z,18.60
2017-08-06T12:16:56.425Z,18.70
2017-08-06T12:19:24.045Z,18.80
2017-08-06T12:21:51.618Z,18.90
2017-08-06T12:24:19.223Z,18.90
2017-08-06T12:26:46.816Z,18.90
2017-08-06T12:29:14.395Z,18.90
2017-08-06T12:31:41.974Z,18.90
2017-08-06T12:34:09.559Z,19.00
2017-08-06T12:36:37.155Z,19.00
2017-08-06T12:39:04.727Z,19.10
2017-08-06T12:41:32.330Z,19.10
2017-08-06T12:43:59.895Z,19.10
2017-08-06T12:46:27.769Z,19.30
2017-08-06T12:48:55.341Z,19.40
2017-08-06T12:51:22.905Z,19.60
2017-08-06T12:53:50.582Z,19.70
2017-08-06T12:56:18.262Z,19.80
2017-08-06T12:58:45.859Z,19.80
2017-08-06T13:01:13.450Z,20.00
2017-08-06T13:03:41.043Z,20.00
2017-08-06T13:06:08.618Z,20.10
2017-08-06T13:08:37.263Z,20.40
2017-08-06T13:11:04.849Z,20.30
2017-08-06T13:13:32.447Z,20.50
2017-08-06T13:16:00.040Z,20.60
2017-08-06T13:18:27.628Z,20.60
2017-08-06T13:20:56.053Z,20.60
2017-08-06T13:23:23.640Z,20.60
2017-08-06T13:25:51.224Z,20.60
2017-08-06T13:28:18.792Z,20.60
2017-08-06T13:30:46.379Z,20.50
2017-08-06T13:33:13.947Z,20.50
2017-08-06T13:35:41.897Z,20.40
2017-08-06T13:38:09.466Z,20.30
2017-08-06T13:40:37.044Z,20.30
2017-08-06T13:43:04.631Z,20.40
2017-08-06T13:45:32.200Z,20.50
2017-08-06T13:47:59.787Z,20.60
2017-08-06T13:50:27.377Z,20.80
2017-08-06T13:52:55.827Z,21.20
2017-08-06T13:55:23.422Z,21.20
2017-08-06T13:57:51.757Z,21.60
2017-08-06T14:00:19.332Z,21.60
2017-08-06T14:02:46.918Z,21.70
2017-08-06T14:05:14.500Z,21.60
2017-08-06T14:07:42.339Z,21.40
2017-08-06T14:10:10.679Z,21.10
2017-08-06T14:12:38.257Z,21.10
2017-08-06T14:15:05.842Z,20.80
2017-08-06T14:17:33.447Z,20.80
2017-08-06T14:20:01.101Z,20.60
2017-08-06T14:22:28.741Z,20.60
2017-08-06T14:24:56.320Z,20.50
2017-08-06T14:27:23.873Z,20.40
2017-08-06T14:29:51.470Z,20.40
2017-08-06T14:32:19.057Z,20.40
2017-08-06T14:34:46.658Z,20.30
2017-08-06T14:37:14.224Z,20.30
2017-08-06T14:39:42.125Z,20.20
2017-08-06T14:42:10.466Z,20.20
2017-08-06T14:44:38.066Z,20.10
2017-08-06T14:47:06.397Z,20.30
2017-08-06T14:49:33.986Z,20.20
2017-08-06T14:52:01.578Z,20.30
2017-08-06T14:54:29.170Z,20.30
2017-08-06T14:56:56.768Z,20.40
2017-08-06T14:59:25.125Z,20.30
2017-08-06T15:01:52.996Z,20.20
2017-08-06T15:04:20.553Z,20.20
2017-08-06T15:06:48.135Z,20.20
2017-08-06T15:09:16.488Z,20.30
2017-08-06T15:11:44.065Z,20.20
2017-08-06T15:14:11.642Z,20.30
2017-08-06T15:16:39.987Z,20.70
2017-08-06T15:19:07.579Z,20.70
2017-08-06T15:21:35.985Z,21.50
2017-08-06T15:24:03.574Z,21.50
2017-08-06T15:26:31.147Z,21.80
2017-08-06T15:28:58.748Z,22.20
2017-08-06T15:31:26.311Z,22.30
2017-08-06T15:33:54.220Z,22.30
2017-08-06T15:36:22.674Z,22.20
2017-08-06T15:38:50.256Z,22.10
2017-08-06T15:41:17.853Z,22.00
2017-08-06T15:43:46.204Z,21.70
2017-08-06T15:46:13.851Z,21.60
2017-08-06T15:48:41.413Z,21.50
2017-08-06T15:51:09.011Z,21.30
2017-08-06T15:53:37.346Z,21.10
2017-08-06T15:56:04.922Z,21.10
2017-08-06T15:58:32.486Z,21.10
2017-08-06T16:01:00.442Z,21.00
2017-08-06T16:03:28.054Z,20.90
2017-08-06T16:05:55.622Z,20.90
2017-08-06T16:08:23.212Z,20.80
2017-08-06T16:10:50.834Z,20.70
2017-08-06T16:13:18.442Z,20.60
2017-08-06T16:15:46.009Z,20.60
2017-08-06T16:18:13.587Z,20.60
2017-08-06T16:20:41.945Z,20.40
2017-08-06T16:23:09.891Z,20.40
2017-08-06T16:25:37.452Z,20.40
2017-08-06T16:28:05.040Z,20.20
2017-08-06T16:30:33.406Z,20.20
2017-08-06T16:33:00.983Z,20.20
2017-08-06T16:35:29.368Z,20.00
2017-08-06T16:37:57.725Z,20.00
2017-08-06T16:40:25.305Z,20.00
2017-08-06T16:42:53.257Z,19.90
2017-08-06T16:45:21.631Z,19.80
2017-08-06T16:47:49.970Z,19.70
2017-08-06T16:50:18.013Z,19.70
2017-08-06T16:52:45.605Z,19.70
2017-08-06T16:55:13.177Z,19.70
2017-08-06T16:57:40.783Z,19.60
2017-08-06T17:00:08.358Z,19.60
2017-08-06T17:02:35.947Z,19.60
2017-08-06T17:05:03.507Z,19.80
2017-08-06T17:07:31.138Z,19.90
2017-08-06T17:09:58.740Z,20.00
2017-08-06T17:12:26.344Z,20.20
2017-08-06T17:14:53.908Z,20.40
2017-08-06T17:17:21.885Z,20.50
2017-08-06T17:19:49.450Z,20.60
2017-08-06T17:22:17.025Z,20.60
2017-08-06T17:24:44.646Z,20.70
2017-08-06T17:27:12.225Z,20.60
2017-08-06T17:29:40.601Z,20.50
2017-08-06T17:32:08.209Z,20.50
2017-08-06T17:34:35.806Z,20.40
2017-08-06T17:37:03.383Z,20.20
2017-08-06T17:39:30.964Z,20.00
2017-08-06T17:41:58.533Z,19.80
2017-08-06T17:44:26.151Z,19.70
2017-08-06T17:46:54.498Z,19.40
2017-08-06T17:49:22.381Z,19.40
2017-08-06T17:51:49.948Z,19.40
2017-08-06T17:54:17.536Z,19.40
2017-08-06T17:56:45.116Z,19.30
2017-08-06T17:59:12.697Z,19.30
2017-08-06T18:01:40.313Z,19.30
2017-08-06T18:04:07.894Z,19.30
2017-08-06T18:06:35.506Z,19.10
2017-08-06T18:09:03.078Z,19.00
2017-08-06T18:11:31.452Z,18.80
2017-08-06T18:13:59.802Z,18.70
2017-08-06T18:16:27.382Z,18.70
2017-08-06T18:18:54.978Z,18.60
2017-08-06T18:21:22.916Z,18.60
2017-08-06T18:23:50.504Z,18.60
2017-08-06T18:26:18.100Z,18.60
2017-08-06T18:28:45.695Z,18.60
2017-08-06T18:31:13.306Z,18.50
2017-08-06T18:33:40.911Z,18.40
2017-08-06T18:36:09.244Z,18.30
2017-08-06T18:38:36.823Z,18.30
2017-08-06T18:41:04.416Z,18.30
2017-08-06T18:43:32.789Z,18.30
2017-08-06T18:46:01.155Z,18.20
2017-08-06T18:48:28.764Z,18.20
2017-08-06T18:50:56.344Z,18.20
2017-08-06T18:53:24.217Z,18.10
2017-08-06T18:55:51.787Z,18.10
2017-08-06T18:58:20.131Z,18.00
2017-08-06T19:00:47.733Z,18.00
2017-08-06T19:03:16.081Z,17.90
2017-08-06T19:05:43.665Z,17.90
2017-08-06T19:08:12.016Z,17.90
2017-08-06T19:10:39.603Z,17.90
2017-08-06T19:13:07.181Z,17.90
2017-08-06T19:15:35.099Z,17.80
2017-08-06T19:18:02.737Z,17.80
2017-08-06T19:20:30.334Z,17.80
2017-08-06T19:22:58.773Z,17.70
2017-08-06T19:25:26.358Z,17.70
2017-08-06T19:27:53.947Z,17.70
2017-08-06T19:30:22.299Z,17.60
2017-08-06T19:32:49.890Z,17.60
2017-08-06T19:35:17.470Z,17.60
2017-08-06T19:37:45.030Z,17.70
2017-08-06T19:40:12.606Z,17.60
2017-08-06T19:42:40.180Z,17.60
2017-08-06T19:45:07.770Z,17.50
2017-08-06T19:47:36.153Z,17.50
2017-08-06T19:50:03.730Z,17.50
2017-08-06T19:52:31.327Z,17.40
2017-08-06T19:54:58.927Z,17.50
2017-08-06T19:57:27.288Z,17.30
2017-08-06T19:59:54.874Z,17.30
2017-08-06T20:02:22.455Z,17.30
2017-08-06T20:04:50.052Z,17.30
2017-08-06T20:07:17.665Z,17.20
2017-08-06T20:09:45.308Z,17.10
2017-08-06T20:12:12.906Z,17.00
2017-08-06T20:14:40.804Z,17.00
2017-08-06T20:17:08.386Z,17.00
2017-08-06T20:19:35.981Z,16.90
2017-08-06T20:22:03.595Z,16.80
2017-08-06T20:24:31.165Z,16.80
2017-08-06T20:26:59.521Z,16.80
2017-08-06T20:29:27.082Z,16.70
2017-08-06T20:31:54.668Z,16.80
2017-08-06T20:34:22.265Z,16.80
2017-08-06T20:36:49.868Z,16.60
2017-08-06T20:39:17.473Z,16.60
2017-08-06T20:41:45.417Z,16.50
2017-08-06T20:44:13.015Z,16.50
2017-08-06T20:46:40.624Z,16.50
2017-08-06T20:49:08.960Z,16.50
2017-08-06T20:51:36.555Z,16.50
2017-08-06T20:54:04.169Z,16.50
2017-08-06T20:56:31.774Z,16.50
2017-08-06T20:58:59.539Z,16.50
2017-08-06T21:01:27.137Z,16.50
2017-08-06T21:03:54.734Z,16.50
2017-08-06T21:06:22.375Z,16.50
2017-08-06T21:08:50.262Z,16.50
2017-08-06T21:11:17.992Z,16.50
2017-08-06T21:13:45.572Z,16.40
2017-08-06T21:16:13.215Z,16.40
2017-08-06T21:18:40.784Z,16.40
2017-08-06T21:21:08.393Z,16.40
2017-08-06T21:23:36.724Z,16.30
2017-08-06T21:26:04.356Z,16.30
2017-08-06T21:28:31.937Z,16.20
2017-08-06T21:30:59.569Z,16.20
2017-08-06T21:33:27.140Z,16.20
2017-08-06T21:35:55.058Z,16.20
2017-08-06T21:38:22.640Z,16.10
2017-08-06T21:40:50.217Z,16.10
2017-08-06T21:43:17.789Z,16.10
2017-08-06T21:45:45.347Z,16.10
2017-08-06T21:48:12.941Z,16.10
2017-08-06T21:50:40.528Z,16.00
2017-08-06T21:53:08.895Z,16.00
2017-08-06T21:55:36.463Z,16.00
2017-08-06T21:58:04.059Z,16.00
2017-08-06T22:00:31.618Z,16.00
2017-08-06T22:02:59.446Z,16.00
2017-08-06T22:05:27.813Z,16.00
2017-08-06T22:07:55.404Z,16.00
2017-08-06T22:10:22.978Z,16.00
2017-08-06T22:12:50.595Z,15.90
2017-08-06T22:15:18.184Z,15.90
2017-08-06T22:17:45.767Z,15.90
2017-08-06T22:20:13.416Z,15.90
2017-08-06T22:22:41.052Z,15.80
2017-08-06T22:25:08.993Z,15.80
2017-08-06T22:27:36.603Z,15.80
2017-08-06T22:30:04.212Z,15.80
2017-08-06T22:32:31.822Z,15.80
2017-08-06T22:34:59.424Z,15.70
2017-08-06T22:37:27.029Z,15.70
2017-08-06T22:39:54.665Z,15.70
2017-08-06T22:42:23.054Z,15.60
2017-08-06T22:44:50.671Z,15.60
2017-08-06T22:47:18.271Z,15.60
2017-08-06T22:49:46.613Z,15.50
2017-08-06T22:52:14.585Z,15.50
2017-08-06T22:54:42.168Z,15.60
2017-08-06T22:57:10.531Z,15.50
2017-08-06T22:59:38.117Z,15.50
2017-08-06T23:02:06.450Z,15.50
2017-08-06T23:04:34.046Z,15.50
2017-08-06T23:07:02.407Z,15.50
2017-08-06T23:09:30.031Z,15.40
2017-08-06T23:11:57.596Z,15.40
2017-08-06T23:14:25.189Z,15.40
2017-08-06T23:16:52.797Z,15.40
2017-08-06T23:19:20.703Z,15.40
2017-08-06T23:21:48.269Z,15.40
2017-08-06T23:24:15.873Z,15.30
2017-08-06T23:26:43.456Z,15.30
2017-08-06T23:29:11.023Z,15.30
2017-08-06T23:31:38.645Z,15.30
2017-08-06T23:34:06.264Z,15.30
2017-08-06T23:36:33.868Z,15.30
2017-08-06T23:39:01.468Z,15.30
2017-08-06T23:41:29.066Z,15.30
2017-08-06T23:43:57.386Z,15.30
2017-08-06T23:46:25.298Z,15.20
2017-08-06T23:48:52.884Z,15.20
2017-08-06T23:51:20.485Z,15.20
2017-08-06T23:53:48.068Z,15.20
2017-08-06T23:56:15.637Z,15.10
2017-08-06T23:58:43.232Z,15.20
